Time;durP1;ratioP1;P1;durP2;ratioP2;P2;SDS_P1;SDS_P2;PMS_P1;PMS_P2;Temp;Humidity;BMP_temperature;BMP_pressure;BME280_temperature;BME280_humidity;BME280_pressure;Samples;Min_cycle;Max_cycle;Signal;HPM_P1;HPM_P2
2023/05/06 00:02:09;;;;;;;14.50;6.20;;;;;;;13.74;57.83;100795.42;125063;1086;104375;-77
2023/05/06 00:04:38;;;;;;;12.70;6.40;;;;;;;13.70;58.44;100805.00;125039;1086;104267;-76
2023/05/06 00:07:07;;;;;;;11.67;5.93;;;;;;;13.68;58.06;100806.71;124933;1086;104190;-77
2023/05/06 00:09:36;;;;;;;13.73;6.27;;;;;;;13.63;57.75;100803.95;124982;1086;104222;-77
2023/05/06 00:12:05;;;;;;;15.27;5.83;;;;;;;13.61;58.00;100804.73;125020;1086;104816;-77
2023/05/06 00:14:33;;;;;;;16.87;6.53;;;;;;;13.60;58.41;100803.86;125101;1086;104399;-76
2023/05/06 00:17:02;;;;;;;12.73;6.27;;;;;;;13.57;58.65;100802.86;124938;1086;104337;-77
2023/05/06 00:19:30;;;;;;;15.45;6.70;;;;;;;13.44;58.49;100798.98;124917;1086;104225;-79
2023/05/06 00:21:59;;;;;;;13.13;6.00;;;;;;;13.48;58.16;100808.78;124876;1086;104482;-77
2023/05/06 00:24:28;;;;;;;12.97;6.07;;;;;;;13.45;58.66;100813.97;124949;1086;104287;-76
2023/05/06 00:26:57;;;;;;;12.60;5.93;;;;;;;13.42;58.98;100804.21;124889;1086;104410;-77
2023/05/06 00:29:25;;;;;;;13.03;6.10;;;;;;;13.41;58.59;100806.80;124979;1086;104221;-77
2023/05/06 00:31:54;;;;;;;15.20;6.65;;;;;;;13.40;58.89;100813.83;124934;1086;104369;-77
2023/05/06 00:34:22;;;;;;;13.07;6.50;;;;;;;13.36;58.52;100822.48;125025;1086;104287;-77
2023/05/06 00:36:51;;;;;;;11.40;6.10;;;;;;;13.30;58.56;100822.27;124990;1086;104378;-77
2023/05/06 00:39:20;;;;;;;18.47;6.73;;;;;;;13.25;59.02;100816.86;124778;1086;104271;-76
2023/05/06 00:41:48;;;;;;;13.90;7.20;;;;;;;13.23;59.16;100823.84;124984;1086;104287;-77
2023/05/06 00:44:17;;;;;;;14.10;6.70;;;;;;;13.19;59.20;100821.94;124911;1086;104788;-76
2023/05/06 00:46:46;;;;;;;12.23;6.37;;;;;;;13.13;59.63;100825.31;124825;1086;104324;-76
2023/05/06 00:49:14;;;;;;;17.70;6.45;;;;;;;13.10;59.38;100824.30;124895;1086;104471;-76
2023/05/06 00:51:43;;;;;;;15.50;6.23;;;;;;;13.09;59.43;100830.44;124945;1086;104401;-76
2023/05/06 00:54:12;;;;;;;12.67;6.20;;;;;;;13.09;59.45;100833.95;124991;1086;104286;-79
2023/05/06 00:56:41;;;;;;;13.43;5.80;;;;;;;13.07;59.41;100840.02;125031;1085;104659;-78
2023/05/06 00:59:10;;;;;;;13.90;5.60;;;;;;;13.05;59.62;100833.81;124966;1086;104353;-76
2023/05/06 01:01:39;;;;;;;9.70;5.73;;;;;;;13.03;60.01;100831.13;124803;1086;104297;-76
2023/05/06 01:04:07;;;;;;;10.70;5.23;;;;;;;13.00;59.11;100824.88;124916;1086;104235;-77
2023/05/06 01:06:44;;;;;;;13.40;5.77;;;;;;;12.98;59.43;100831.82;124991;1086;104655;-77
2023/05/06 01:09:20;;;;;;;13.73;5.47;;;;;;;12.96;59.69;100826.50;125125;1086;104299;-76
2023/05/06 01:11:54;;;;;;;10.83;5.70;;;;;;;12.98;59.41;100826.55;125247;1086;104414;-77
2023/05/06 01:14:31;;;;;;;9.33;5.25;;;;;;;13.01;59.59;100822.30;124989;1086;104363;-77
2023/05/06 01:17:05;;;;;;;13.00;5.33;;;;;;;13.03;59.64;100822.34;125038;1086;104363;-77
2023/05/06 01:19:45;;;;;;;11.80;5.15;;;;;;;13.00;59.99;100822.25;125039;1086;104366;-77
2023/05/06 01:22:15;;;;;;;9.67;5.10;;;;;;;12.97;59.96;100824.78;125188;1086;111695;-77
2023/05/06 01:24:46;;;;;;;10.60;5.50;;;;;;;12.94;59.62;100818.55;124957;1086;104213;-77
2023/05/06 01:27:15;;;;;;;9.50;5.40;;;;;;;12.91;59.72;100818.45;125019;1086;104293;-77
2023/05/06 01:29:46;;;;;;;10.23;4.83;;;;;;;12.88;60.03;100820.99;125133;1086;104644;-78
2023/05/06 01:32:35;;;;;;;15.53;5.47;;;;;;;12.86;60.05;100825.33;124988;1086;104362;-77
2023/05/06 01:35:14;;;;;;;12.85;5.70;;;;;;;12.84;60.05;100824.40;124924;1086;104676;-77
2023/05/06 01:37:51;;;;;;;9.30;5.05;;;;;;;12.80;59.86;100819.87;124953;1086;104363;-77
2023/05/06 01:40:26;;;;;;;9.27;5.47;;;;;;;12.76;59.90;100821.52;124878;1086;104443;-77
2023/05/06 01:42:55;;;;;;;11.73;5.77;;;;;;;12.70;59.96;100825.67;124883;1086;107085;-76
2023/05/06 01:45:27;;;;;;;12.77;5.93;;;;;;;12.67;60.36;100825.58;125123;1086;104341;-76
2023/05/06 01:47:56;;;;;;;12.73;5.70;;;;;;;12.65;60.28;100828.16;125275;1086;104344;-76
2023/05/06 01:50:26;;;;;;;14.53;6.13;;;;;;;12.64;60.35;100825.50;124963;1086;104229;-77
2023/05/06 01:52:59;;;;;;;14.20;6.17;;;;;;;12.61;60.28;100831.55;125143;1086;118510;-77
2023/05/06 01:55:28;;;;;;;13.23;5.47;;;;;;;12.61;60.79;100828.92;124931;1086;104229;-77
2023/05/06 01:57:57;;;;;;;14.47;6.10;;;;;;;12.56;60.76;100828.77;124997;1086;104290;-77
2023/05/06 02:00:26;;;;;;;14.13;6.47;;;;;;;12.48;60.78;100843.42;125056;1086;104238;-76
2023/05/06 02:02:55;;;;;;;12.30;6.30;;;;;;;12.40;60.92;100839.63;125013;1086;104356;-77
2023/05/06 02:05:25;;;;;;;12.00;5.93;;;;;;;12.33;60.97;100840.28;125094;1086;104340;-76
2023/05/06 02:07:54;;;;;;;17.30;6.87;;;;;;;12.28;61.02;100841.83;124910;1086;104293;-76
2023/05/06 02:10:23;;;;;;;12.10;6.10;;;;;;;12.26;61.34;100847.05;124778;1086;104289;-76
2023/05/06 02:12:58;;;;;;;14.70;6.30;;;;;;;12.21;61.37;100844.25;124899;1086;104370;-77
2023/05/06 02:15:26;;;;;;;13.03;6.13;;;;;;;12.18;61.62;100848.52;124799;1086;104315;-76
2023/05/06 02:17:56;;;;;;;14.27;6.17;;;;;;;12.15;61.36;100849.30;124735;1086;104270;-76
2023/05/06 02:20:24;;;;;;;13.07;5.70;;;;;;;12.14;61.14;100854.51;124830;1086;104733;-76
2023/05/06 02:22:53;;;;;;;13.03;6.20;;;;;;;12.11;61.17;100857.95;124734;1086;104561;-76
2023/05/06 02:25:22;;;;;;;11.23;5.50;;;;;;;12.10;61.50;100853.52;124753;1086;104354;-77
2023/05/06 02:27:51;;;;;;;11.40;6.05;;;;;;;12.10;61.36;100861.41;125053;1086;104330;-77
2023/05/06 02:30:20;;;;;;;13.23;5.57;;;;;;;12.13;61.39;100858.00;124809;1086;104355;-76
2023/05/06 02:32:48;;;;;;;14.17;6.40;;;;;;;12.13;61.34;100858.00;124768;1086;104410;-77
2023/05/06 02:35:17;;;;;;;11.33;5.43;;;;;;;12.15;61.38;100845.78;124972;1086;104232;-75
2023/05/06 02:37:45;;;;;;;12.60;5.00;;;;;;;12.17;61.31;100854.61;125090;1086;104231;-76
2023/05/06 02:40:14;;;;;;;14.70;5.63;;;;;;;12.18;61.28;100857.30;124978;1086;104250;-76
2023/05/06 02:42:42;;;;;;;10.73;5.60;;;;;;;12.20;61.36;100857.35;124874;1086;104343;-76
2023/05/06 02:45:12;;;;;;;12.63;5.43;;;;;;;12.20;61.25;100850.37;124972;1086;104366;-75
2023/05/06 02:47:40;;;;;;;15.10;5.80;;;;;;;12.18;61.05;100851.16;125006;1086;104334;-75
2023/05/06 02:50:09;;;;;;;10.70;5.25;;;;;;;12.15;61.03;100853.67;124917;1086;104232;-76
2023/05/06 02:52:38;;;;;;;12.67;6.00;;;;;;;12.08;61.28;100868.36;124797;1086;104794;-76
2023/05/06 02:55:08;;;;;;;11.90;5.27;;;;;;;12.02;61.18;100860.25;125016;1086;104315;-78
2023/05/06 02:57:36;;;;;;;8.90;5.33;;;;;;;12.01;61.37;100863.70;124941;1086;104327;-78
2023/05/06 03:00:09;;;;;;;13.80;5.80;;;;;;;12.01;61.17;100868.97;124912;1086;104232;-76
2023/05/06 03:02:38;;;;;;;14.20;5.43;;;;;;;11.99;61.37;100876.80;124745;1086;104366;-76
2023/05/06 03:05:09;;;;;;;11.60;5.50;;;;;;;11.97;61.07;100877.61;124870;1086;104241;-76
2023/05/06 03:07:38;;;;;;;12.93;5.80;;;;;;;11.95;61.20;100879.27;124876;1086;104286;-76
2023/05/06 03:10:09;;;;;;;15.23;5.80;;;;;;;11.98;61.42;100879.38;124901;1086;104242;-76
2023/05/06 03:12:38;;;;;;;13.43;5.40;;;;;;;12.00;61.45;100880.36;125023;1086;104235;-77
2023/05/06 03:15:09;;;;;;;17.10;6.00;;;;;;;12.01;61.21;100880.41;124996;1086;104328;-76
2023/05/06 03:17:38;;;;;;;14.73;5.80;;;;;;;12.01;61.22;100883.04;124809;1086;104366;-76
2023/05/06 03:20:09;;;;;;;12.67;5.53;;;;;;;12.00;61.36;100886.50;124929;1086;104321;-77
2023/05/06 03:22:41;;;;;;;11.97;5.37;;;;;;;11.99;61.09;100886.44;125315;1086;104286;-76
2023/05/06 03:25:10;;;;;;;15.83;5.37;;;;;;;11.97;61.24;100894.27;124933;1085;104299;-76
2023/05/06 03:27:39;;;;;;;11.65;5.25;;;;;;;11.96;61.17;100891.59;124935;1086;104287;-76
2023/05/06 03:30:14;;;;;;;11.50;5.00;;;;;;;12.01;61.11;100898.82;125069;1086;104262;-76
2023/05/06 03:32:44;;;;;;;12.57;5.57;;;;;;;12.06;61.23;100904.25;124945;1086;104290;-77
2023/05/06 03:35:15;;;;;;;10.97;4.83;;;;;;;12.07;60.92;100906.02;124998;1086;104232;-76
2023/05/06 03:37:45;;;;;;;9.90;4.40;;;;;;;12.08;60.83;100902.55;124887;1086;104289;-76
2023/05/06 03:40:14;;;;;;;12.00;5.00;;;;;;;12.08;60.59;100905.19;124952;1086;104338;-77
2023/05/06 03:42:43;;;;;;;9.00;4.40;;;;;;;12.07;60.72;100905.13;125085;1086;104155;-75
2023/05/06 03:45:12;;;;;;;8.07;4.27;;;;;;;12.11;60.56;100907.92;125188;1086;104206;-75
2023/05/06 03:47:41;;;;;;;8.70;4.40;;;;;;;12.11;60.43;100913.19;125456;1086;104398;-76
2023/05/06 03:50:11;;;;;;;13.90;4.87;;;;;;;12.12;60.30;100908.81;125126;1086;104363;-75
2023/05/06 03:52:40;;;;;;;9.60;3.90;;;;;;;12.13;60.02;100914.13;125134;1086;104260;-75
2023/05/06 03:55:13;;;;;;;8.27;4.50;;;;;;;12.13;59.99;100918.50;125077;1086;104277;-75
2023/05/06 03:57:41;;;;;;;11.57;4.10;;;;;;;12.14;59.91;100915.93;124939;1086;104428;-76
2023/05/06 04:00:12;;;;;;;7.80;3.87;;;;;;;12.16;59.67;100919.50;124932;1086;104394;-77
2023/05/06 04:02:48;;;;;;;7.57;3.90;;;;;;;12.20;59.35;100923.12;125034;1086;104236;-81
2023/05/06 04:05:21;;;;;;;;;;;;;;;12.22;58.23;100916.20;124955;1086;104351;-76
2023/05/06 04:07:49;;;;;;;8.00;4.20;;;;;;;12.27;59.07;100924.27;124810;1086;104289;-75
2023/05/06 04:10:18;;;;;;;7.40;3.93;;;;;;;12.31;58.86;100923.51;124791;1086;104344;-76
2023/05/06 04:12:49;;;;;;;8.07;3.93;;;;;;;12.35;58.81;100928.94;124935;1086;104420;-75
2023/05/06 04:15:22;;;;;;;10.73;4.13;;;;;;;12.41;58.64;100931.78;124840;1086;104187;-77
2023/05/06 04:17:51;;;;;;;10.70;4.40;;;;;;;12.47;59.05;100930.23;124934;1086;104353;-77
2023/05/06 04:20:20;;;;;;;12.73;4.43;;;;;;;12.52;59.04;100921.63;124807;1086;104344;-77
2023/05/06 04:22:48;;;;;;;10.93;4.17;;;;;;;12.57;58.89;100927.05;125105;1085;104348;-76
2023/05/06 04:25:18;;;;;;;11.10;4.00;;;;;;;12.60;58.38;100924.53;124979;1086;104414;-76
2023/05/06 04:27:47;;;;;;;7.20;3.47;;;;;;;12.66;57.88;100930.00;125249;1085;104340;-76
2023/05/06 04:30:16;;;;;;;8.93;3.73;;;;;;;12.72;57.81;100930.21;124904;1086;104315;-76
2023/05/06 04:32:45;;;;;;;6.70;3.50;;;;;;;12.77;57.29;100935.63;125028;1086;104210;-76
2023/05/06 04:35:15;;;;;;;9.43;3.60;;;;;;;12.82;57.05;100934.04;124948;1086;104385;-76
2023/05/06 04:37:44;;;;;;;9.33;3.80;;;;;;;12.88;56.26;100938.63;125088;1086;104315;-76
2023/05/06 04:40:21;;;;;;;5.67;3.30;;;;;;;12.91;55.61;100934.34;125109;1086;104399;-77
2023/05/06 04:42:50;;;;;;;5.50;3.50;;;;;;;12.95;55.81;100936.25;124971;1086;104312;-76
2023/05/06 04:45:23;;;;;;;7.80;3.20;;;;;;;13.03;55.57;100940.89;124931;1086;104286;-77
2023/05/06 04:47:52;;;;;;;8.40;3.30;;;;;;;13.10;56.01;100942.86;125035;1086;104450;-75
2023/05/06 04:50:20;;;;;;;7.87;3.43;;;;;;;13.17;55.71;100942.22;124882;1086;104366;-76
2023/05/06 04:52:49;;;;;;;6.10;3.27;;;;;;;13.23;54.59;100937.15;124953;1086;104334;-75
2023/05/06 04:55:19;;;;;;;7.13;3.40;;;;;;;13.29;54.70;100945.25;125076;1086;104277;-76
2023/05/06 04:57:51;;;;;;;7.50;3.30;;;;;;;13.41;54.67;100939.48;125203;1086;104319;-78
2023/05/06 05:00:21;;;;;;;8.97;3.30;;;;;;;13.52;54.29;100941.57;124969;1086;104366;-75
2023/05/06 05:02:49;;;;;;;5.80;2.83;;;;;;;13.60;52.93;100955.87;124951;1086;104443;-78
2023/05/06 05:05:19;;;;;;;7.37;2.80;;;;;;;13.70;53.01;100946.48;125000;1086;104408;-77
2023/05/06 05:07:50;;;;;;;6.93;3.37;;;;;;;13.76;52.51;100944.03;125184;1086;104449;-77
2023/05/06 05:10:19;;;;;;;6.43;2.70;;;;;;;13.84;50.78;100953.98;125262;1086;104254;-78
2023/05/06 05:12:48;;;;;;;5.60;2.73;;;;;;;13.94;51.41;100951.61;125393;1086;104337;-77
2023/05/06 05:15:17;;;;;;;4.50;2.50;;;;;;;13.95;49.58;100949.02;125067;1086;104366;-77
2023/05/06 05:17:45;;;;;;;3.90;2.63;;;;;;;14.10;50.51;100945.94;125061;1086;104286;-77
2023/05/06 05:20:14;;;;;;;5.70;2.80;;;;;;;14.18;50.59;100943.52;125092;1086;104209;-78
2023/05/06 05:22:43;;;;;;;8.23;3.00;;;;;;;14.27;49.49;100940.22;124920;1086;104338;-76
2023/05/06 05:25:11;;;;;;;5.80;2.90;;;;;;;14.35;50.65;100942.23;125157;1086;104450;-78
2023/05/06 05:27:41;;;;;;;9.67;3.13;;;;;;;14.41;49.08;100949.41;125430;1086;104360;-79
2023/05/06 05:30:11;;;;;;;7.70;2.87;;;;;;;14.52;49.32;100949.70;125226;1086;104640;-78
2023/05/06 05:32:41;;;;;;;5.53;2.63;;;;;;;14.58;46.07;100946.34;125278;1086;104293;-76
2023/05/06 05:35:10;;;;;;;6.10;2.90;;;;;;;14.63;46.23;100944.73;125404;1086;104222;-77
2023/05/06 05:37:39;;;;;;;4.50;2.60;;;;;;;14.68;45.04;100943.13;125118;1086;104226;-77
2023/05/06 05:40:10;;;;;;;5.27;2.47;;;;;;;14.72;45.15;100943.25;125028;1086;104434;-76
2023/05/06 05:42:40;;;;;;;4.20;2.50;;;;;;;14.77;44.76;100947.73;125390;1086;104369;-76
2023/05/06 05:45:14;;;;;;;7.17;2.65;;;;;;;14.81;44.39;100949.61;125203;1086;105506;-78
2023/05/06 05:47:43;;;;;;;7.17;2.90;;;;;;;14.89;45.41;100953.33;125076;1086;104366;-76
2023/05/06 05:50:12;;;;;;;4.83;2.43;;;;;;;14.95;42.69;100958.77;125027;1086;104239;-77
2023/05/06 05:52:41;;;;;;;5.60;2.67;;;;;;;15.02;44.55;100944.88;125370;1086;104398;-78
2023/05/06 05:55:10;;;;;;;4.57;2.40;;;;;;;15.12;45.15;100945.98;125088;1086;104360;-77
2023/05/06 05:57:39;;;;;;;4.60;2.40;;;;;;;15.16;43.35;100952.22;125041;1086;104334;-76
2023/05/06 06:00:11;;;;;;;5.50;2.40;;;;;;;15.16;43.32;100946.94;125157;1086;104226;-74
2023/05/06 06:02:45;;;;;;;5.40;2.35;;;;;;;15.19;42.74;100952.30;125108;1086;104293;-77
2023/05/06 06:05:16;;;;;;;5.37;2.80;;;;;;;15.26;44.15;100951.59;125283;1086;104331;-76
2023/05/06 06:07:44;;;;;;;8.30;3.10;;;;;;;15.33;42.95;100948.22;125124;1086;104366;-77
2023/05/06 06:10:14;;;;;;;9.80;2.40;;;;;;;15.45;44.25;100947.62;125111;1086;104235;-75
2023/05/06 06:12:44;;;;;;;3.60;2.13;;;;;;;15.54;41.78;100950.48;125206;1086;104287;-77
2023/05/06 06:15:13;;;;;;;5.70;2.77;;;;;;;15.61;41.87;100957.70;124978;1086;104228;-75
2023/05/06 06:17:42;;;;;;;5.73;2.60;;;;;;;15.55;41.09;100964.59;125285;1086;104229;-78
2023/05/06 06:20:13;;;;;;;5.13;2.43;;;;;;;15.57;42.52;100954.95;125070;1086;104376;-77
2023/05/06 06:22:41;;;;;;;6.13;2.50;;;;;;;15.60;42.16;100955.03;125078;1086;104212;-78
2023/05/06 06:25:10;;;;;;;4.23;2.30;;;;;;;15.68;41.17;100960.49;124997;1086;104382;-75
2023/05/06 06:27:39;;;;;;;3.27;2.30;;;;;;;15.73;41.60;100956.19;125395;1086;104375;-76
2023/05/06 06:30:10;;;;;;;4.23;2.30;;;;;;;15.72;41.38;100963.23;125417;1086;104382;-77
2023/05/06 06:32:48;;;;;;;4.00;2.03;;;;;;;15.76;40.81;100965.08;126863;1086;104158;-75
2023/05/06 06:35:18;;;;;;;4.85;2.50;;;;;;;15.89;42.39;100954.79;125279;1086;104233;-76
2023/05/06 06:37:47;;;;;;;7.50;2.67;;;;;;;16.00;39.94;100971.78;125220;1086;104232;-75
2023/05/06 06:40:16;;;;;;;5.10;2.13;;;;;;;16.07;40.58;100967.53;125034;1086;104257;-77
2023/05/06 06:42:45;;;;;;;7.20;2.50;;;;;;;16.10;39.59;100967.59;125209;1085;104354;-75
2023/05/06 06:45:31;;;;;;;5.03;2.40;;;;;;;16.13;39.91;100968.53;125160;1085;104696;-75
2023/05/06 06:47:59;;;;;;;6.07;2.13;;;;;;;16.20;39.33;100963.37;125260;1086;104228;-75
2023/05/06 06:50:29;;;;;;;3.07;2.00;;;;;;;16.29;38.98;100960.91;125060;1086;104264;-77
2023/05/06 06:52:57;;;;;;;5.67;2.07;;;;;;;16.44;39.74;100958.55;125074;1086;104494;-77
2023/05/06 06:55:26;;;;;;;3.73;2.20;;;;;;;16.60;38.81;100958.84;125040;1086;104401;-76
2023/05/06 06:57:54;;;;;;;4.95;2.30;;;;;;;16.79;38.29;100963.59;125012;1086;104290;-76
2023/05/06 07:00:23;;;;;;;4.97;2.30;;;;;;;17.00;38.87;100967.50;125310;1086;104334;-77
2023/05/06 07:02:52;;;;;;;8.93;2.80;;;;;;;17.04;37.43;100969.35;125169;1086;104293;-75
2023/05/06 07:05:21;;;;;;;4.60;2.10;;;;;;;17.15;36.15;100977.48;125310;1086;104352;-76
2023/05/06 07:07:49;;;;;;;3.17;2.17;;;;;;;17.20;37.78;100974.05;125293;1086;104312;-78
2023/05/06 07:10:18;;;;;;;6.03;2.30;;;;;;;17.28;37.75;100973.27;125474;1086;104235;-76
2023/05/06 07:12:47;;;;;;;4.03;2.23;;;;;;;17.39;37.96;100974.31;125425;1086;104309;-75
2023/05/06 07:15:15;;;;;;;4.17;2.67;;;;;;;17.56;38.35;100962.22;125361;1086;104225;-75
2023/05/06 07:17:44;;;;;;;5.95;2.20;;;;;;;17.71;38.06;100976.56;125132;1086;105658;-75
2023/05/06 07:20:13;;;;;;;4.55;2.10;;;;;;;17.86;38.40;100971.46;125060;1086;104322;-76
2023/05/06 07:22:42;;;;;;;4.30;2.10;;;;;;;18.04;38.17;100969.95;125227;1086;104372;-75
2023/05/06 07:25:11;;;;;;;3.57;1.90;;;;;;;18.11;38.18;100966.50;125058;1086;104232;-75
2023/05/06 07:27:39;;;;;;;4.03;2.33;;;;;;;18.16;36.93;100970.09;125092;1086;104363;-76
2023/05/06 07:30:10;;;;;;;4.80;2.00;;;;;;;18.18;36.54;100963.03;125009;1086;104424;-76
2023/05/06 07:32:39;;;;;;;3.30;2.40;;;;;;;18.22;34.97;100963.98;125016;1086;104376;-76
2023/05/06 07:35:09;;;;;;;6.85;2.25;;;;;;;18.23;36.52;100957.77;125063;1086;104271;-76
2023/05/06 07:37:38;;;;;;;5.70;2.50;;;;;;;18.30;34.61;100968.48;125138;1086;104376;-76
2023/05/06 07:40:08;;;;;;;6.45;2.30;;;;;;;18.39;36.00;100977.45;125184;1086;104206;-78
2023/05/06 07:42:37;;;;;;;3.90;2.10;;;;;;;18.46;36.17;100969.54;125166;1086;104682;-76
2023/05/06 07:45:08;;;;;;;3.23;1.90;;;;;;;18.50;35.96;100979.34;125123;1086;104225;-75
2023/05/06 07:47:36;;;;;;;3.33;2.10;;;;;;;18.55;35.26;100973.19;125220;1086;104638;-76
2023/05/06 07:50:06;;;;;;;3.30;2.10;;;;;;;18.64;34.68;100967.98;125537;1086;104209;-76
2023/05/06 07:52:35;;;;;;;4.67;1.90;;;;;;;18.85;34.60;100973.53;125178;1086;104292;-76
2023/05/06 07:55:04;;;;;;;6.70;2.30;;;;;;;18.91;34.16;100977.12;125103;1086;104284;-74
2023/05/06 07:57:33;;;;;;;9.37;2.13;;;;;;;18.90;33.43;100983.30;125083;1086;104350;-75
2023/05/06 08:00:01;;;;;;;9.57;2.33;;;;;;;18.82;34.03;100973.47;125031;1086;104238;-75
2023/05/06 08:02:30;;;;;;;5.93;2.27;;;;;;;18.67;33.98;100981.30;125060;1086;104286;-77
2023/05/06 08:04:59;;;;;;;5.90;2.17;;;;;;;18.75;34.59;100982.25;125300;1086;104370;-75
2023/05/06 08:07:27;;;;;;;3.60;2.13;;;;;;;18.63;33.57;100985.66;125099;1086;104244;-74
2023/05/06 08:09:56;;;;;;;4.00;2.30;;;;;;;18.69;34.05;100992.83;125014;1086;104315;-74
2023/05/06 08:12:25;;;;;;;3.87;2.27;;;;;;;18.81;34.14;100976.12;125060;1086;104360;-77
2023/05/06 08:14:54;;;;;;;3.93;2.23;;;;;;;18.92;34.08;100973.59;125006;1086;104232;-76
2023/05/06 08:17:22;;;;;;;6.03;2.10;;;;;;;18.93;34.32;100975.35;125156;1086;104264;-77
2023/05/06 08:19:51;;;;;;;6.17;2.40;;;;;;;18.96;32.84;100978.92;124992;1086;104271;-76
2023/05/06 08:22:19;;;;;;;7.37;2.10;;;;;;;18.89;33.67;100973.56;124950;1086;104508;-74
2023/05/06 08:24:48;;;;;;;3.53;2.00;;;;;;;18.93;33.92;100976.27;125221;1086;104225;-76
2023/05/06 08:27:16;;;;;;;6.00;2.40;;;;;;;19.02;33.95;100980.75;125080;1086;104254;-77
2023/05/06 08:29:45;;;;;;;3.57;2.23;;;;;;;19.00;33.52;100987.84;124952;1086;104366;-77
2023/05/06 08:32:14;;;;;;;5.33;2.40;;;;;;;19.07;32.87;100986.99;125125;1086;104270;-77
2023/05/06 08:34:42;;;;;;;5.83;2.20;;;;;;;19.21;34.36;100981.79;124992;1086;104453;-77
2023/05/06 08:37:11;;;;;;;5.50;2.13;;;;;;;19.23;32.88;100985.38;125129;1086;104231;-77
2023/05/06 08:39:39;;;;;;;4.53;2.20;;;;;;;19.30;32.64;101002.27;125153;1086;104241;-76
2023/05/06 08:42:10;;;;;;;6.77;2.30;;;;;;;19.16;33.68;100988.85;125304;1086;104162;-79
2023/05/06 08:44:39;;;;;;;3.70;2.20;;;;;;;19.20;33.91;100993.33;125242;1086;104153;-76
2023/05/06 08:47:08;;;;;;;3.30;2.00;;;;;;;19.15;33.82;100985.31;125289;1086;104335;-76
2023/05/06 08:49:36;;;;;;;3.00;2.17;;;;;;;19.16;33.65;100992.39;125314;1086;104231;-75
2023/05/06 08:52:06;;;;;;;3.30;2.13;;;;;;;19.16;33.07;100981.75;125401;1086;104340;-77
2023/05/06 08:54:35;;;;;;;3.73;2.20;;;;;;;19.27;33.79;100978.30;125287;1086;104353;-78
2023/05/06 08:57:06;;;;;;;4.20;2.03;;;;;;;19.46;33.59;100992.63;125056;1086;104609;-77
2023/05/06 08:59:35;;;;;;;5.87;2.20;;;;;;;19.61;34.03;100992.73;125367;1086;104270;-78
2023/05/06 09:02:04;;;;;;;3.47;2.47;;;;;;;19.56;32.91;100994.47;125409;1086;104232;-77
2023/05/06 09:04:33;;;;;;;4.20;2.10;;;;;;;19.52;33.25;100992.66;125208;1085;104289;-78
2023/05/06 09:07:02;;;;;;;4.10;2.40;;;;;;;19.53;32.24;100994.45;125542;1086;104335;-77
2023/05/06 09:09:30;;;;;;;7.77;2.40;;;;;;;19.52;32.66;100995.33;125285;1086;105712;-77
2023/05/06 09:12:01;;;;;;;7.47;2.17;;;;;;;19.47;32.17;100986.42;125189;1086;104427;-77
2023/05/06 09:14:30;;;;;;;5.20;2.43;;;;;;;19.45;32.05;101006.83;125250;1086;104337;-75
2023/05/06 09:16:59;;;;;;;6.27;2.70;;;;;;;19.30;31.45;101004.93;125106;1086;104213;-76
2023/05/06 09:19:27;;;;;;;3.63;1.90;;;;;;;19.25;31.83;100988.92;125080;1086;104609;-79
2023/05/06 09:21:56;;;;;;;10.23;2.57;;;;;;;19.26;32.19;100985.40;125118;1086;117912;-77
2023/05/06 09:24:24;;;;;;;6.63;2.40;;;;;;;19.22;32.61;100979.14;125093;1086;104545;-76
2023/05/06 09:26:54;;;;;;;6.33;2.27;;;;;;;19.25;32.00;100982.73;125072;1086;104228;-78
2023/05/06 09:29:22;;;;;;;6.57;2.10;;;;;;;19.17;31.96;100988.86;125220;1086;104362;-78
2023/05/06 09:31:54;;;;;;;4.50;2.53;;;;;;;19.16;31.83;100988.85;125340;1086;104232;-76
2023/05/06 09:34:23;;;;;;;4.03;2.40;;;;;;;19.25;32.37;100996.91;125280;1086;104419;-77
2023/05/06 09:36:55;;;;;;;7.23;2.27;;;;;;;19.34;32.32;100993.44;125126;1086;104392;-77
2023/05/06 09:39:26;;;;;;;6.10;2.27;;;;;;;19.42;32.76;100970.42;125433;1086;104238;-78
2023/05/06 09:41:55;;;;;;;3.60;2.20;;;;;;;19.59;32.27;100981.19;125573;1086;104232;-76
2023/05/06 09:44:24;;;;;;;4.75;2.30;;;;;;;19.78;33.00;100976.01;125112;1086;104292;-76
2023/05/06 09:46:53;;;;;;;5.03;2.30;;;;;;;19.86;32.18;100976.93;125525;1086;104320;-77
2023/05/06 09:49:22;;;;;;;4.73;2.63;;;;;;;19.87;32.10;100963.63;125364;1086;104325;-77
2023/05/06 09:51:53;;;;;;;5.13;2.67;;;;;;;19.76;31.54;100970.64;125245;1086;105566;-75
2023/05/06 09:54:22;;;;;;;4.87;2.20;;;;;;;19.65;31.49;100962.59;125266;1086;104312;-75
2023/05/06 09:56:51;;;;;;;3.50;2.00;;;;;;;19.72;32.38;100966.17;125567;1085;104251;-77
2023/05/06 09:59:21;;;;;;;5.33;2.00;;;;;;;19.68;32.42;100957.28;125700;1086;104277;-76
2023/05/06 10:01:50;;;;;;;4.37;1.97;;;;;;;19.65;31.81;100970.58;125505;1086;104616;-77
2023/05/06 10:04:22;;;;;;;4.57;2.10;;;;;;;19.74;31.91;100962.64;125329;1086;104363;-78
2023/05/06 10:06:52;;;;;;;5.23;2.30;;;;;;;19.85;31.85;100964.48;125264;1086;104399;-75
2023/05/06 10:09:23;;;;;;;4.65;2.45;;;;;;;19.88;31.40;100969.83;125211;1086;104286;-77
2023/05/06 10:11:52;;;;;;;4.15;2.35;;;;;;;19.84;31.21;100957.41;125156;1086;104295;-76
2023/05/06 10:14:21;;;;;;;6.17;2.40;;;;;;;19.69;31.86;100961.70;125169;1086;104302;-77
2023/05/06 10:16:51;;;;;;;4.70;2.30;;;;;;;19.68;31.37;100961.70;124930;1085;104311;-77
2023/05/06 10:19:24;;;;;;;6.93;2.30;;;;;;;19.72;31.41;100968.83;125053;1086;104350;-76
2023/05/06 10:21:57;;;;;;;4.97;2.27;;;;;;;19.69;31.66;100964.37;125126;1086;104483;-76
2023/05/06 10:24:32;;;;;;;3.87;2.30;;;;;;;19.73;31.78;100966.17;125107;1086;104366;-77
2023/05/06 10:27:04;;;;;;;4.23;2.20;;;;;;;19.71;31.16;100959.97;125150;1085;104286;-76
2023/05/06 10:29:36;;;;;;;4.23;2.43;;;;;;;19.72;31.71;100948.41;125283;1086;104296;-80
2023/05/06 10:32:08;;;;;;;4.10;2.10;;;;;;;19.83;30.67;100950.28;125250;1085;104280;-78
2023/05/06 10:34:53;;;;;;;3.97;2.27;;;;;;;19.79;31.04;100953.80;125376;1085;104258;-77
2023/05/06 10:37:24;;;;;;;3.50;1.93;;;;;;;19.88;30.92;100953.84;125212;1086;104363;-76
2023/05/06 10:39:55;;;;;;;4.47;2.30;;;;;;;19.94;30.45;100948.55;125161;1086;104374;-76
2023/05/06 10:42:27;;;;;;;5.13;2.30;;;;;;;20.02;31.54;100945.92;125108;1086;104228;-76
2023/05/06 10:45:03;;;;;;;3.83;2.50;;;;;;;19.92;31.33;100943.22;125325;1086;104228;-75
2023/05/06 10:48:08;;;;;;;3.83;2.10;;;;;;;20.01;31.67;100939.72;125146;1086;104245;-77
2023/05/06 10:50:37;;;;;;;7.73;2.50;;;;;;;20.15;31.06;100938.86;125142;1086;104251;-76
2023/05/06 10:53:05;;;;;;;4.27;2.27;;;;;;;20.22;31.60;100944.21;125143;1086;104442;-78
2023/05/06 10:55:36;;;;;;;3.67;2.17;;;;;;;20.38;31.44;100931.84;125175;1086;104181;-77
2023/05/06 10:58:14;;;;;;;2.57;2.03;;;;;;;20.46;30.88;100937.19;125285;1086;104254;-75
2023/05/06 11:00:52;;;;;;;5.47;2.27;;;;;;;20.54;29.74;100932.75;125083;1086;104238;-75
2023/05/06 11:03:23;;;;;;;4.50;2.53;;;;;;;20.57;30.84;100935.42;125121;1086;104162;-76
2023/05/06 11:05:52;;;;;;;3.80;2.40;;;;;;;20.52;29.79;100947.86;125151;1086;104364;-76
2023/05/06 11:08:24;;;;;;;7.43;2.47;;;;;;;20.48;30.78;100930.08;124986;1086;104232;-77
2023/05/06 11:10:52;;;;;;;2.90;2.10;;;;;;;20.60;30.21;100927.42;125131;1086;104363;-78
2023/05/06 11:13:23;;;;;;;3.30;2.10;;;;;;;20.68;30.93;100934.56;125096;1086;104236;-76
2023/05/06 11:15:52;;;;;;;5.53;2.13;;;;;;;20.69;29.90;100920.35;125163;1086;104306;-77
2023/05/06 11:18:42;;;;;;;2.75;2.30;;;;;;;20.76;30.77;100930.14;125055;1086;104375;-78
2023/05/06 11:21:40;;;;;;;9.33;2.40;;;;;;;20.66;30.52;100929.22;125322;1086;104257;-78